CDT,Max TemperatureF,Mean TemperatureF,Min TemperatureF,Max Dew PointF,MeanDew PointF,Min DewpointF,Max Humidity, Mean Humidity, Min Humidity, Max Sea Level PressureIn, Mean Sea Level PressureIn, Min Sea Level PressureIn, Max VisibilityMiles, Mean VisibilityMiles, Min VisibilityMiles, Max Wind SpeedMPH, Mean Wind SpeedMPH, Max Gust SpeedMPH,PrecipitationIn, CloudCover, Events, WindDirDegrees
2013-9-1,90,75,60,72,65,58,93,68,43,29.89,29.80,29.75,10,5,1,17,7,23,T,1,,276
2013-9-2,78,66,53,59,55,51,93,67,40,30.04,29.97,29.89,10,10,10,13,7,17,0.00,0,,334
2013-9-3,78,62,46,55,51,46,93,68,43,30.12,30.07,30.04,10,10,2,7,2,10,0.00,0,,326
2013-9-4,86,67,48,67,56,46,100,70,40,30.16,30.12,30.08,10,10,6,9,2,12,0.00,0,,258
2013-9-5,88,74,60,68,62,57,93,68,43,30.21,30.16,30.12,10,10,10,15,6,18,0.00,0,,89
2013-9-6,88,73,58,61,57,52,80,58,36,30.20,30.11,29.99,10,10,10,15,8,20,0.00,0,,159
2013-9-7,92,80,67,68,64,60,76,60,44,29.99,29.93,29.86,10,10,8,16,8,22,T,1,,188
2013-9-8,86,78,70,69,67,65,90,73,55,30.00,29.93,29.88,10,8,4,21,11,25,0.00,3,,95
2013-9-9,97,84,70,70,67,60,97,66,35,29.90,29.85,29.80,10,7,2,16,8,22,0.00,0,,191
2013-9-10,96,84,72,64,61,57,68,48,27,29.99,29.95,29.88,10,10,9,22,10,31,0.00,0,,220
2013-9-11,85,76,66,68,65,62,90,72,54,30.06,30.03,29.99,10,10,7,13,5,18,T,2,Rain,252
2013-9-12,80,67,54,64,52,45,93,62,30,30.14,30.07,30.03,10,10,8,21,9,28,0.00,0,,320
2013-9-13,71,59,46,48,41,33,86,56,25,30.25,30.18,30.13,10,10,10,15,7,20,0.00,0,,40
2013-9-14,74,57,40,46,42,37,89,60,31,30.21,30.11,30.00,10,10,6,15,6,20,0.00,0,,165
2013-9-15,63,57,51,61,54,42,97,73,48,30.22,30.03,29.97,10,7,1,15,7,22,0.81,7,Rain-Thunderstorm,85
2013-9-16,69,60,50,52,49,45,100,71,42,30.40,30.32,30.23,10,9,5,14,8,18,0.00,4,,61
2013-9-17,70,58,46,58,51,44,93,75,57,30.34,30.21,30.08,10,9,5,13,7,16,T,3,,132
2013-9-18,83,72,61,70,63,54,84,75,65,30.08,29.97,29.85,10,8,2,16,10,23,0.16,3,Rain-Thunderstorm,154
2013-9-19,93,80,67,68,66,63,93,66,38,29.89,29.84,29.72,10,8,2,33,11,43,0.48,4,Rain-Thunderstorm,217
2013-9-20,69,61,52,65,57,48,93,71,49,29.92,29.87,29.81,10,9,4,17,10,23,0.01,4,Rain,274
2013-9-21,70,58,46,49,47,45,93,69,44,29.98,29.94,29.90,10,10,10,16,6,18,0.00,0,,309
2013-9-22,71,57,42,48,45,42,93,67,40,30.07,30.01,29.97,10,10,9,12,5,15,0.00,0,,107
2013-9-23,74,61,48,51,47,44,86,62,38,30.09,30.02,29.97,10,10,10,15,9,20,0.00,0,,117
2013-9-24,75,60,45,53,49,44,93,67,41,30.00,29.95,29.90,10,10,8,17,8,24,0.00,1,,96
2013-9-25,77,64,51,52,50,49,89,65,40,29.98,29.93,29.90,10,9,4,13,7,15,0.00,0,,76
2013-9-26,83,67,51,58,53,49,96,68,40,30.04,30.00,29.97,10,8,2,14,8,20,0.00,0,,115
2013-9-27,84,70,56,59,51,48,72,52,31,30.11,30.05,29.99,10,10,10,18,9,24,0.00,0,,143
2013-9-28,80,65,49,66,57,48,100,77,54,30.03,29.95,29.88,10,8,2,28,11,37,0.16,5,Rain,216
2013-9-29,72,56,40,52,45,37,100,65,29,30.11,30.05,30.00,10,4,0,8,2,12,0.00,1,Fog,238
2013-9-30,77,60,43,56,47,41,89,61,33,29.99,29.92,29.83,10,10,9,17,9,23,0.00,0,,170